sensor_id;sensor_type;location;lat;lon;timestamp;P1;durP1;ratioP1;P2;durP2;ratioP2
15889;SDS011;8043;49.388;12.128;2023-04-25T00:03:26;5.10;;;2.80;;
15889;SDS011;8043;49.388;12.128;2023-04-25T00:08:30;8.47;;;3.87;;
15889;SDS011;8043;49.388;12.128;2023-04-25T00:13:32;4.33;;;2.67;;
15889;SDS011;8043;49.388;12.128;2023-04-25T00:18:35;5.57;;;2.73;;
15889;SDS011;8043;49.388;12.128;2023-04-25T00:23:37;3.27;;;2.33;;
15889;SDS011;8043;49.388;12.128;2023-04-25T00:28:40;3.90;;;2.27;;
15889;SDS011;8043;49.388;12.128;2023-04-25T00:33:42;4.10;;;2.40;;
15889;SDS011;8043;49.388;12.128;2023-04-25T00:38:44;5.57;;;2.90;;
15889;SDS011;8043;49.388;12.128;2023-04-25T00:43:47;2.90;;;2.07;;
15889;SDS011;8043;49.388;12.128;2023-04-25T00:48:50;6.10;;;2.83;;
15889;SDS011;8043;49.388;12.128;2023-04-25T00:53:52;6.47;;;2.63;;
15889;SDS011;8043;49.388;12.128;2023-04-25T00:58:55;4.77;;;2.70;;
15889;SDS011;8043;49.388;12.128;2023-04-25T01:03:58;5.43;;;2.50;;
15889;SDS011;8043;49.388;12.128;2023-04-25T01:09:01;5.00;;;2.50;;
15889;SDS011;8043;49.388;12.128;2023-04-25T01:14:03;3.10;;;2.30;;
15889;SDS011;8043;49.388;12.128;2023-04-25T01:19:09;4.33;;;2.33;;
15889;SDS011;8043;49.388;12.128;2023-04-25T01:24:15;3.87;;;2.30;;
15889;SDS011;8043;49.388;12.128;2023-04-25T01:29:18;4.20;;;2.43;;
15889;SDS011;8043;49.388;12.128;2023-04-25T01:34:21;3.47;;;2.43;;
15889;SDS011;8043;49.388;12.128;2023-04-25T01:39:23;4.73;;;2.53;;
15889;SDS011;8043;49.388;12.128;2023-04-25T01:44:26;4.23;;;2.63;;
15889;SDS011;8043;49.388;12.128;2023-04-25T01:49:28;4.30;;;2.60;;
15889;SDS011;8043;49.388;12.128;2023-04-25T01:54:31;3.20;;;2.10;;
15889;SDS011;8043;49.388;12.128;2023-04-25T01:59:33;4.73;;;2.60;;
15889;SDS011;8043;49.388;12.128;2023-04-25T02:04:35;4.07;;;2.33;;
15889;SDS011;8043;49.388;12.128;2023-04-25T02:09:38;4.20;;;2.73;;
15889;SDS011;8043;49.388;12.128;2023-04-25T02:14:40;4.47;;;2.57;;
15889;SDS011;8043;49.388;12.128;2023-04-25T02:19:43;6.37;;;3.23;;
15889;SDS011;8043;49.388;12.128;2023-04-25T02:24:46;4.07;;;2.50;;
15889;SDS011;8043;49.388;12.128;2023-04-25T02:29:48;4.33;;;2.40;;
15889;SDS011;8043;49.388;12.128;2023-04-25T02:34:51;4.03;;;2.50;;
15889;SDS011;8043;49.388;12.128;2023-04-25T02:39:53;2.83;;;1.80;;
15889;SDS011;8043;49.388;12.128;2023-04-25T02:44:55;5.17;;;2.60;;
15889;SDS011;8043;49.388;12.128;2023-04-25T02:49:57;3.80;;;2.43;;
15889;SDS011;8043;49.388;12.128;2023-04-25T02:54:59;5.83;;;2.93;;
15889;SDS011;8043;49.388;12.128;2023-04-25T03:00:02;4.10;;;2.37;;
15889;SDS011;8043;49.388;12.128;2023-04-25T03:05:06;4.37;;;2.83;;
15889;SDS011;8043;49.388;12.128;2023-04-25T03:10:09;3.07;;;2.00;;
15889;SDS011;8043;49.388;12.128;2023-04-25T03:15:12;4.17;;;2.43;;
15889;SDS011;8043;49.388;12.128;2023-04-25T03:20:14;4.07;;;2.30;;
15889;SDS011;8043;49.388;12.128;2023-04-25T03:25:17;3.63;;;2.50;;
15889;SDS011;8043;49.388;12.128;2023-04-25T03:30:19;4.70;;;2.50;;
15889;SDS011;8043;49.388;12.128;2023-04-25T03:35:21;6.43;;;2.13;;
15889;SDS011;8043;49.388;12.128;2023-04-25T03:40:24;4.83;;;2.57;;
15889;SDS011;8043;49.388;12.128;2023-04-25T03:45:26;4.80;;;2.43;;
15889;SDS011;8043;49.388;12.128;2023-04-25T03:50:28;3.37;;;2.13;;
15889;SDS011;8043;49.388;12.128;2023-04-25T03:55:30;2.77;;;1.83;;
15889;SDS011;8043;49.388;12.128;2023-04-25T04:00:33;3.77;;;2.00;;
15889;SDS011;8043;49.388;12.128;2023-04-25T04:05:36;4.53;;;2.17;;
15889;SDS011;8043;49.388;12.128;2023-04-25T04:10:41;2.93;;;2.20;;
15889;SDS011;8043;49.388;12.128;2023-04-25T04:15:43;4.20;;;2.20;;
15889;SDS011;8043;49.388;12.128;2023-04-25T04:20:45;6.50;;;2.40;;
15889;SDS011;8043;49.388;12.128;2023-04-25T04:25:47;4.62;;;2.30;;
15889;SDS011;8043;49.388;12.128;2023-04-25T04:30:50;3.10;;;2.13;;
15889;SDS011;8043;49.388;12.128;2023-04-25T04:35:53;3.47;;;2.37;;
15889;SDS011;8043;49.388;12.128;2023-04-25T04:40:56;1.97;;;1.70;;
15889;SDS011;8043;49.388;12.128;2023-04-25T04:45:58;5.33;;;2.10;;
15889;SDS011;8043;49.388;12.128;2023-04-25T04:51:04;2.37;;;1.83;;
15889;SDS011;8043;49.388;12.128;2023-04-25T04:56:06;5.73;;;2.00;;
15889;SDS011;8043;49.388;12.128;2023-04-25T05:01:08;3.40;;;1.97;;
15889;SDS011;8043;49.388;12.128;2023-04-25T05:06:10;5.03;;;2.30;;
15889;SDS011;8043;49.388;12.128;2023-04-25T05:11:13;3.53;;;1.77;;
15889;SDS011;8043;49.388;12.128;2023-04-25T05:16:15;4.30;;;2.43;;
15889;SDS011;8043;49.388;12.128;2023-04-25T05:21:18;3.53;;;2.17;;
15889;SDS011;8043;49.388;12.128;2023-04-25T05:26:20;4.47;;;2.23;;
15889;SDS011;8043;49.388;12.128;2023-04-25T05:31:22;5.77;;;2.83;;
15889;SDS011;8043;49.388;12.128;2023-04-25T05:36:24;7.43;;;2.30;;
15889;SDS011;8043;49.388;12.128;2023-04-25T05:41:27;4.27;;;2.53;;
15889;SDS011;8043;49.388;12.128;2023-04-25T05:46:30;4.30;;;2.57;;
15889;SDS011;8043;49.388;12.128;2023-04-25T05:51:32;4.17;;;2.57;;
15889;SDS011;8043;49.388;12.128;2023-04-25T05:56:34;4.97;;;2.17;;
15889;SDS011;8043;49.388;12.128;2023-04-25T06:01:37;3.57;;;1.90;;
15889;SDS011;8043;49.388;12.128;2023-04-25T06:06:40;3.73;;;2.60;;
15889;SDS011;8043;49.388;12.128;2023-04-25T06:11:42;7.43;;;2.43;;
15889;SDS011;8043;49.388;12.128;2023-04-25T06:16:45;5.80;;;2.77;;
15889;SDS011;8043;49.388;12.128;2023-04-25T06:21:47;3.87;;;2.60;;
15889;SDS011;8043;49.388;12.128;2023-04-25T06:26:49;4.67;;;2.60;;
15889;SDS011;8043;49.388;12.128;2023-04-25T06:31:52;3.47;;;2.17;;
15889;SDS011;8043;49.388;12.128;2023-04-25T06:36:54;3.77;;;2.35;;
15889;SDS011;8043;49.388;12.128;2023-04-25T06:41:56;4.63;;;2.20;;
15889;SDS011;8043;49.388;12.128;2023-04-25T06:46:58;3.13;;;2.47;;
15889;SDS011;8043;49.388;12.128;2023-04-25T06:52:01;6.17;;;2.43;;
15889;SDS011;8043;49.388;12.128;2023-04-25T06:57:03;4.83;;;2.67;;
15889;SDS011;8043;49.388;12.128;2023-04-25T07:02:05;4.23;;;2.53;;
15889;SDS011;8043;49.388;12.128;2023-04-25T07:07:08;4.70;;;2.40;;
15889;SDS011;8043;49.388;12.128;2023-04-25T07:12:10;5.10;;;2.50;;
15889;SDS011;8043;49.388;12.128;2023-04-25T07:17:12;5.60;;;2.17;;
15889;SDS011;8043;49.388;12.128;2023-04-25T07:22:15;4.10;;;2.40;;
15889;SDS011;8043;49.388;12.128;2023-04-25T07:27:18;4.33;;;2.50;;
15889;SDS011;8043;49.388;12.128;2023-04-25T07:32:20;3.90;;;2.20;;
15889;SDS011;8043;49.388;12.128;2023-04-25T07:37:23;7.53;;;2.80;;
15889;SDS011;8043;49.388;12.128;2023-04-25T07:42:26;5.20;;;2.53;;
15889;SDS011;8043;49.388;12.128;2023-04-25T07:47:28;3.17;;;2.20;;
15889;SDS011;8043;49.388;12.128;2023-04-25T07:52:31;5.53;;;2.43;;
15889;SDS011;8043;49.388;12.128;2023-04-25T07:57:33;2.67;;;1.53;;
15889;SDS011;8043;49.388;12.128;2023-04-25T08:02:35;3.40;;;2.03;;
15889;SDS011;8043;49.388;12.128;2023-04-25T08:07:38;4.53;;;1.80;;
15889;SDS011;8043;49.388;12.128;2023-04-25T08:12:42;3.00;;;2.03;;
15889;SDS011;8043;49.388;12.128;2023-04-25T08:17:45;3.77;;;2.50;;
15889;SDS011;8043;49.388;12.128;2023-04-25T08:22:47;3.70;;;2.13;;
15889;SDS011;8043;49.388;12.128;2023-04-25T08:27:50;3.70;;;2.40;;
15889;SDS011;8043;49.388;12.128;2023-04-25T08:32:52;3.40;;;2.40;;
15889;SDS011;8043;49.388;12.128;2023-04-25T08:37:55;3.60;;;2.20;;
15889;SDS011;8043;49.388;12.128;2023-04-25T08:42:58;4.40;;;2.07;;
15889;SDS011;8043;49.388;12.128;2023-04-25T08:48:00;2.43;;;1.50;;
15889;SDS011;8043;49.388;12.128;2023-04-25T08:53:04;3.97;;;1.70;;
15889;SDS011;8043;49.388;12.128;2023-04-25T08:58:07;5.37;;;2.00;;
15889;SDS011;8043;49.388;12.128;2023-04-25T09:03:10;2.10;;;1.17;;
15889;SDS011;8043;49.388;12.128;2023-04-25T09:08:12;1.97;;;1.30;;
15889;SDS011;8043;49.388;12.128;2023-04-25T09:13:23;1.67;;;1.27;;
15889;SDS011;8043;49.388;12.128;2023-04-25T09:23:28;2.40;;;1.53;;
15889;SDS011;8043;49.388;12.128;2023-04-25T09:28:30;2.03;;;1.50;;
15889;SDS011;8043;49.388;12.128;2023-04-25T09:33:32;1.93;;;1.40;;
15889;SDS011;8043;49.388;12.128;2023-04-25T09:38:43;1.93;;;1.53;;
15889;SDS011;8043;49.388;12.128;2023-04-25T09:43:45;4.53;;;2.50;;
15889;SDS011;8043;49.388;12.128;2023-04-25T09:48:50;3.37;;;1.97;;
15889;SDS011;8043;49.388;12.128;2023-04-25T09:53:54;3.10;;;2.47;;
15889;SDS011;8043;49.388;12.128;2023-04-25T09:58:56;5.67;;;2.47;;
15889;SDS011;8043;49.388;12.128;2023-04-25T10:03:59;3.30;;;1.77;;
15889;SDS011;8043;49.388;12.128;2023-04-25T10:09:01;3.60;;;2.20;;
15889;SDS011;8043;49.388;12.128;2023-04-25T10:14:04;2.87;;;2.23;;
15889;SDS011;8043;49.388;12.128;2023-04-25T10:19:07;4.63;;;2.10;;
15889;SDS011;8043;49.388;12.128;2023-04-25T10:24:09;5.72;;;2.17;;
15889;SDS011;8043;49.388;12.128;2023-04-25T10:29:12;3.83;;;2.13;;
15889;SDS011;8043;49.388;12.128;2023-04-25T10:34:15;4.30;;;2.30;;
15889;SDS011;8043;49.388;12.128;2023-04-25T10:39:22;6.87;;;3.17;;
15889;SDS011;8043;49.388;12.128;2023-04-25T10:44:26;4.83;;;3.00;;
15889;SDS011;8043;49.388;12.128;2023-04-25T10:49:31;4.13;;;2.80;;
15889;SDS011;8043;49.388;12.128;2023-04-25T10:54:34;5.60;;;2.90;;
15889;SDS011;8043;49.388;12.128;2023-04-25T10:59:38;3.20;;;2.50;;
15889;SDS011;8043;49.388;12.128;2023-04-25T11:04:41;4.37;;;2.40;;
15889;SDS011;8043;49.388;12.128;2023-04-25T11:09:44;4.50;;;2.60;;
15889;SDS011;8043;49.388;12.128;2023-04-25T11:14:46;3.47;;;2.43;;
15889;SDS011;8043;49.388;12.128;2023-04-25T11:19:49;3.87;;;2.10;;
15889;SDS011;8043;49.388;12.128;2023-04-25T11:24:51;5.03;;;2.87;;
15889;SDS011;8043;49.388;12.128;2023-04-25T11:29:53;3.43;;;2.40;;
15889;SDS011;8043;49.388;12.128;2023-04-25T11:34:55;4.37;;;2.60;;
15889;SDS011;8043;49.388;12.128;2023-04-25T11:39:59;3.37;;;2.07;;
15889;SDS011;8043;49.388;12.128;2023-04-25T11:45:02;6.10;;;2.40;;
15889;SDS011;8043;49.388;12.128;2023-04-25T11:50:06;5.30;;;2.63;;
15889;SDS011;8043;49.388;12.128;2023-04-25T11:55:13;4.63;;;2.70;;
15889;SDS011;8043;49.388;12.128;2023-04-25T12:00:18;5.33;;;2.53;;
15889;SDS011;8043;49.388;12.128;2023-04-25T12:05:32;4.13;;;2.53;;
15889;SDS011;8043;49.388;12.128;2023-04-25T12:10:36;3.97;;;2.23;;
15889;SDS011;8043;49.388;12.128;2023-04-25T12:15:40;3.97;;;2.00;;
15889;SDS011;8043;49.388;12.128;2023-04-25T12:20:42;4.37;;;2.40;;
15889;SDS011;8043;49.388;12.128;2023-04-25T12:25:44;4.03;;;2.47;;
15889;SDS011;8043;49.388;12.128;2023-04-25T12:36:05;3.30;;;2.03;;
15889;SDS011;8043;49.388;12.128;2023-04-25T12:41:12;3.03;;;1.93;;
15889;SDS011;8043;49.388;12.128;2023-04-25T12:46:14;2.77;;;2.20;;
15889;SDS011;8043;49.388;12.128;2023-04-25T12:51:16;7.93;;;2.90;;
15889;SDS011;8043;49.388;12.128;2023-04-25T12:56:19;2.70;;;1.53;;
15889;SDS011;8043;49.388;12.128;2023-04-25T13:01:21;2.43;;;1.50;;
15889;SDS011;8043;49.388;12.128;2023-04-25T13:06:24;1.60;;;1.03;;
15889;SDS011;8043;49.388;12.128;2023-04-25T13:11:26;6.30;;;1.43;;
15889;SDS011;8043;49.388;12.128;2023-04-25T13:16:29;1.27;;;0.90;;
15889;SDS011;8043;49.388;12.128;2023-04-25T13:21:31;1.27;;;1.00;;
15889;SDS011;8043;49.388;12.128;2023-04-25T13:26:33;7.00;;;1.40;;
15889;SDS011;8043;49.388;12.128;2023-04-25T13:31:36;2.57;;;0.97;;
15889;SDS011;8043;49.388;12.128;2023-04-25T13:36:38;0.70;;;0.70;;
15889;SDS011;8043;49.388;12.128;2023-04-25T13:41:40;1.10;;;0.77;;
15889;SDS011;8043;49.388;12.128;2023-04-25T13:46:43;0.87;;;0.60;;
15889;SDS011;8043;49.388;12.128;2023-04-25T13:51:46;0.80;;;0.60;;
15889;SDS011;8043;49.388;12.128;2023-04-25T13:56:49;0.57;;;0.50;;
15889;SDS011;8043;49.388;12.128;2023-04-25T14:01:52;2.67;;;0.87;;
15889;SDS011;8043;49.388;12.128;2023-04-25T14:06:55;1.53;;;0.70;;
15889;SDS011;8043;49.388;12.128;2023-04-25T14:11:57;1.03;;;0.70;;
15889;SDS011;8043;49.388;12.128;2023-04-25T14:17:01;4.40;;;1.20;;
15889;SDS011;8043;49.388;12.128;2023-04-25T14:22:03;1.13;;;0.87;;
15889;SDS011;8043;49.388;12.128;2023-04-25T14:27:05;0.50;;;0.50;;
15889;SDS011;8043;49.388;12.128;2023-04-25T14:32:08;0.80;;;0.63;;
15889;SDS011;8043;49.388;12.128;2023-04-25T14:37:11;0.67;;;0.67;;
15889;SDS011;8043;49.388;12.128;2023-04-25T14:42:13;1.60;;;0.60;;
15889;SDS011;8043;49.388;12.128;2023-04-25T14:47:16;1.30;;;0.80;;
15889;SDS011;8043;49.388;12.128;2023-04-25T14:52:18;0.60;;;0.60;;
15889;SDS011;8043;49.388;12.128;2023-04-25T14:57:21;1.40;;;0.90;;
15889;SDS011;8043;49.388;12.128;2023-04-25T15:02:25;0.73;;;0.73;;
15889;SDS011;8043;49.388;12.128;2023-04-25T15:07:27;0.93;;;0.80;;
15889;SDS011;8043;49.388;12.128;2023-04-25T15:12:29;1.23;;;0.83;;
15889;SDS011;8043;49.388;12.128;2023-04-25T15:17:31;0.80;;;0.80;;
15889;SDS011;8043;49.388;12.128;2023-04-25T15:22:34;3.13;;;1.10;;
15889;SDS011;8043;49.388;12.128;2023-04-25T15:27:39;1.97;;;0.60;;
15889;SDS011;8043;49.388;12.128;2023-04-25T15:32:43;0.80;;;0.80;;
15889;SDS011;8043;49.388;12.128;2023-04-25T15:37:46;1.67;;;0.90;;
15889;SDS011;8043;49.388;12.128;2023-04-25T15:42:51;1.63;;;1.10;;
15889;SDS011;8043;49.388;12.128;2023-04-25T15:47:55;0.80;;;0.80;;
15889;SDS011;8043;49.388;12.128;2023-04-25T15:52:57;2.00;;;1.23;;
15889;SDS011;8043;49.388;12.128;2023-04-25T15:58:00;1.20;;;1.07;;
15889;SDS011;8043;49.388;12.128;2023-04-25T16:03:02;1.47;;;1.00;;
15889;SDS011;8043;49.388;12.128;2023-04-25T16:08:05;2.33;;;1.00;;
15889;SDS011;8043;49.388;12.128;2023-04-25T16:13:07;1.60;;;1.50;;
15889;SDS011;8043;49.388;12.128;2023-04-25T16:18:09;2.27;;;1.33;;
15889;SDS011;8043;49.388;12.128;2023-04-25T16:23:12;2.97;;;1.33;;
15889;SDS011;8043;49.388;12.128;2023-04-25T16:28:14;3.53;;;1.43;;
15889;SDS011;8043;49.388;12.128;2023-04-25T16:33:16;1.50;;;1.40;;
15889;SDS011;8043;49.388;12.128;2023-04-25T16:38:18;1.63;;;0.77;;
15889;SDS011;8043;49.388;12.128;2023-04-25T16:43:21;1.93;;;0.90;;
15889;SDS011;8043;49.388;12.128;2023-04-25T16:48:23;1.37;;;1.10;;
15889;SDS011;8043;49.388;12.128;2023-04-25T16:53:25;2.47;;;1.30;;
15889;SDS011;8043;49.388;12.128;2023-04-25T16:58:28;1.53;;;1.10;;
15889;SDS011;8043;49.388;12.128;2023-04-25T17:03:30;1.50;;;0.90;;
15889;SDS011;8043;49.388;12.128;2023-04-25T17:08:32;1.80;;;1.00;;
15889;SDS011;8043;49.388;12.128;2023-04-25T17:13:35;1.93;;;1.27;;
15889;SDS011;8043;49.388;12.128;2023-04-25T17:18:37;2.27;;;1.63;;
15889;SDS011;8043;49.388;12.128;2023-04-25T17:23:39;1.40;;;1.20;;
15889;SDS011;8043;49.388;12.128;2023-04-25T17:28:43;2.70;;;1.37;;
15889;SDS011;8043;49.388;12.128;2023-04-25T17:33:47;1.50;;;1.40;;
15889;SDS011;8043;49.388;12.128;2023-04-25T17:38:50;3.53;;;1.70;;
15889;SDS011;8043;49.388;12.128;2023-04-25T17:43:52;1.93;;;1.37;;
15889;SDS011;8043;49.388;12.128;2023-04-25T17:48:55;2.50;;;1.63;;
15889;SDS011;8043;49.388;12.128;2023-04-25T17:53:57;1.77;;;1.00;;
15889;SDS011;8043;49.388;12.128;2023-04-25T17:59:01;4.53;;;1.17;;
15889;SDS011;8043;49.388;12.128;2023-04-25T18:04:04;3.03;;;1.47;;
15889;SDS011;8043;49.388;12.128;2023-04-25T18:09:08;4.83;;;1.43;;
15889;SDS011;8043;49.388;12.128;2023-04-25T18:14:12;1.23;;;1.00;;
15889;SDS011;8043;49.388;12.128;2023-04-25T18:19:17;2.83;;;1.23;;
15889;SDS011;8043;49.388;12.128;2023-04-25T18:24:22;1.53;;;1.10;;
15889;SDS011;8043;49.388;12.128;2023-04-25T18:29:28;1.27;;;1.10;;
15889;SDS011;8043;49.388;12.128;2023-04-25T18:34:33;2.47;;;1.80;;
15889;SDS011;8043;49.388;12.128;2023-04-25T18:39:35;4.67;;;2.13;;
15889;SDS011;8043;49.388;12.128;2023-04-25T18:44:37;2.87;;;1.30;;
15889;SDS011;8043;49.388;12.128;2023-04-25T18:49:40;1.83;;;1.53;;
15889;SDS011;8043;49.388;12.128;2023-04-25T18:54:43;2.13;;;1.30;;
15889;SDS011;8043;49.388;12.128;2023-04-25T18:59:45;2.50;;;1.50;;
15889;SDS011;8043;49.388;12.128;2023-04-25T19:04:47;3.43;;;1.67;;
15889;SDS011;8043;49.388;12.128;2023-04-25T19:09:51;2.53;;;1.77;;
15889;SDS011;8043;49.388;12.128;2023-04-25T19:14:53;13.67;;;7.03;;
15889;SDS011;8043;49.388;12.128;2023-04-25T19:19:56;4.93;;;2.47;;
15889;SDS011;8043;49.388;12.128;2023-04-25T19:24:58;2.43;;;1.60;;
15889;SDS011;8043;49.388;12.128;2023-04-25T19:30:01;3.20;;;1.87;;
15889;SDS011;8043;49.388;12.128;2023-04-25T19:35:06;5.33;;;1.73;;
15889;SDS011;8043;49.388;12.128;2023-04-25T19:40:10;1.90;;;1.60;;
15889;SDS011;8043;49.388;12.128;2023-04-25T19:45:14;2.90;;;1.33;;
15889;SDS011;8043;49.388;12.128;2023-04-25T19:50:16;1.90;;;1.20;;
15889;SDS011;8043;49.388;12.128;2023-04-25T19:55:20;2.60;;;1.30;;
15889;SDS011;8043;49.388;12.128;2023-04-25T20:00:23;2.93;;;1.90;;
15889;SDS011;8043;49.388;12.128;2023-04-25T20:05:26;2.20;;;1.60;;
15889;SDS011;8043;49.388;12.128;2023-04-25T20:10:29;4.30;;;2.77;;
15889;SDS011;8043;49.388;12.128;2023-04-25T20:15:31;2.97;;;2.10;;
15889;SDS011;8043;49.388;12.128;2023-04-25T20:20:34;4.07;;;1.93;;
15889;SDS011;8043;49.388;12.128;2023-04-25T20:25:37;3.63;;;1.83;;
15889;SDS011;8043;49.388;12.128;2023-04-25T20:30:39;4.13;;;1.87;;
15889;SDS011;8043;49.388;12.128;2023-04-25T20:35:42;3.60;;;2.17;;
15889;SDS011;8043;49.388;12.128;2023-04-25T20:40:45;3.43;;;1.87;;
15889;SDS011;8043;49.388;12.128;2023-04-25T20:45:48;3.47;;;1.50;;
15889;SDS011;8043;49.388;12.128;2023-04-25T20:50:50;2.73;;;1.70;;
15889;SDS011;8043;49.388;12.128;2023-04-25T20:55:53;2.83;;;1.70;;
15889;SDS011;8043;49.388;12.128;2023-04-25T21:00:55;4.30;;;2.23;;
15889;SDS011;8043;49.388;12.128;2023-04-25T21:05:57;3.97;;;1.10;;
15889;SDS011;8043;49.388;12.128;2023-04-25T21:11:00;1.97;;;1.40;;
15889;SDS011;8043;49.388;12.128;2023-04-25T21:16:02;3.97;;;1.70;;
15889;SDS011;8043;49.388;12.128;2023-04-25T21:21:05;1.60;;;1.33;;
15889;SDS011;8043;49.388;12.128;2023-04-25T21:26:07;2.37;;;1.33;;
15889;SDS011;8043;49.388;12.128;2023-04-25T21:31:09;4.17;;;2.07;;
15889;SDS011;8043;49.388;12.128;2023-04-25T21:36:11;4.70;;;2.20;;
15889;SDS011;8043;49.388;12.128;2023-04-25T21:41:14;3.10;;;1.60;;
15889;SDS011;8043;49.388;12.128;2023-04-25T21:46:16;5.37;;;2.03;;
15889;SDS011;8043;49.388;12.128;2023-04-25T21:51:18;6.17;;;1.47;;
15889;SDS011;8043;49.388;12.128;2023-04-25T21:56:21;6.43;;;1.33;;
15889;SDS011;8043;49.388;12.128;2023-04-25T22:01:24;4.07;;;0.83;;
15889;SDS011;8043;49.388;12.128;2023-04-25T22:06:27;2.20;;;1.20;;
15889;SDS011;8043;49.388;12.128;2023-04-25T22:11:29;4.70;;;1.82;;
15889;SDS011;8043;49.388;12.128;2023-04-25T22:16:31;5.60;;;1.60;;
15889;SDS011;8043;49.388;12.128;2023-04-25T22:21:33;4.23;;;1.53;;
15889;SDS011;8043;49.388;12.128;2023-04-25T22:26:36;4.20;;;1.90;;
15889;SDS011;8043;49.388;12.128;2023-04-25T22:31:38;6.03;;;1.80;;
15889;SDS011;8043;49.388;12.128;2023-04-25T22:36:41;3.77;;;1.77;;
15889;SDS011;8043;49.388;12.128;2023-04-25T22:41:43;3.47;;;1.60;;
15889;SDS011;8043;49.388;12.128;2023-04-25T22:46:46;4.73;;;2.27;;
15889;SDS011;8043;49.388;12.128;2023-04-25T22:51:49;2.50;;;1.60;;
15889;SDS011;8043;49.388;12.128;2023-04-25T22:56:53;2.33;;;1.90;;
15889;SDS011;8043;49.388;12.128;2023-04-25T23:01:57;2.03;;;1.70;;
15889;SDS011;8043;49.388;12.128;2023-04-25T23:06:59;1.90;;;1.40;;
15889;SDS011;8043;49.388;12.128;2023-04-25T23:12:02;5.93;;;1.97;;
15889;SDS011;8043;49.388;12.128;2023-04-25T23:17:04;2.93;;;2.13;;
15889;SDS011;8043;49.388;12.128;2023-04-25T23:22:07;3.20;;;1.87;;
15889;SDS011;8043;49.388;12.128;2023-04-25T23:27:09;1.93;;;1.37;;
15889;SDS011;8043;49.388;12.128;2023-04-25T23:32:11;4.07;;;2.00;;
15889;SDS011;8043;49.388;12.128;2023-04-25T23:37:13;4.20;;;1.70;;
15889;SDS011;8043;49.388;12.128;2023-04-25T23:42:16;4.63;;;2.10;;
15889;SDS011;8043;49.388;12.128;2023-04-25T23:47:19;5.07;;;1.90;;
15889;SDS011;8043;49.388;12.128;2023-04-25T23:52:21;3.40;;;1.50;;
15889;SDS011;8043;49.388;12.128;2023-04-25T23:57:24;2.53;;;1.47;;
